Flood From: 22-02-2018 16:00 Until: 23-02-2018 16:00 warning for: Flood Level: Yellow info button

Although rather usual in this region, locally or potentially dangerous phenomena are expected. (such as local winds, summer thunderstorms, rising streams or high waves) Be aware and pay attention to the latest weather updates, especially if you carry out activities exposed to weather or close to a stream or shoreline. 


Meteo18 Weather Cam more information Meteo18 Weather Cam


Thunder radar more information blitzortung!


Rain radar more information rain snow radar


Visit our other weather sites:

Template documentation
and downloads

And another site



Weather Underground History page Text

Daily Summary for June 4, 2017 Units:  English    Metric   Both
« Previous Day
Next Day »
Daily Weekly Monthly Yearly Custom
  High: Low: Average:
Temperature: TemperatureC °F 9.7 °F 15.7 °F
Dew Point: DewpointC °F 8.7 °F 10.6 °F
Humidity: Humidity % 49 % 73 %
Wind Speed: WindSpeedKMH mph 0.0 mph 2.1 mph
Wind Gust: WindSpeedGustKMH mph - -
Wind:- - SW
Pressure: PressurehPa in 1017.8 in -
Precipitation: 1.3 in    
Historical Graphs
 
 
Tabular Data for June 4, 2017
Time Temperature Dew Point Pressure Wind Wind Speed Wind Gust Humidity Rainfall Rate (Hourly)
TemperatureC °F DewpointC °F PressurehPa in Calm     Humidity % HourlyPrecipMM in
00:02 14.2 °F 13.4 °F 1018.2 in NW 6.4 mph 14.5 mph 95 % 1.0 in
00:07 14.0 °F 13.2 °F 1018.2 in NW 6.4 mph 14.5 mph 95 % 1.5 in
00:12 13.9 °F 13.1 °F 1018.2 in NNW 4.8 mph 12.9 mph 95 % 1.8 in
00:17 13.9 °F 13.1 °F 1018.2 in NNW 4.8 mph 12.9 mph 95 % 2.0 in
00:22 13.9 °F 13.1 °F 1018.5 in Calm   11.3 mph 95 % 2.0 in
00:32 13.7 °F 12.9 °F 1018.2 in NNW 6.4 mph 9.7 mph 95 % 1.8 in
00:42 13.7 °F 12.9 °F 1018.5 in NNW 1.6 mph 9.7 mph 95 % 2.0 in
00:47 13.6 °F 12.8 °F 1018.5 in NNW 4.8 mph 9.7 mph 95 % 2.0 in
00:52 13.6 °F 12.8 °F 1018.2 in NNE 4.8 mph 9.7 mph 95 % 1.8 in
00:57 13.5 °F 12.6 °F 1018.5 in North 6.4 mph 9.7 mph 94 % 1.5 in
01:02 13.4 °F 12.5 °F 1018.5 in NNW 8.0 mph 11.3 mph 94 % 1.0 in
01:07 13.4 °F 12.5 °F 1018.5 in NNW 4.8 mph 11.3 mph 94 % 0.8 in
01:12 13.3 °F 12.4 °F 1018.5 in NNW 3.2 mph 11.3 mph 94 % 0.5 in
01:17 13.3 °F 12.4 °F 1018.5 in North 4.8 mph 11.3 mph 94 % 0.3 in
01:22 13.3 °F 12.4 °F 1018.5 in NNW 3.2 mph 9.7 mph 94 % 0.3 in
01:27 13.2 °F 12.3 °F 1018.8 in NW 1.6 mph 9.7 mph 94 % 0.3 in
01:32 13.2 °F 12.3 °F 1018.8 in NW 3.2 mph 9.7 mph 94 % 0.0 in
01:37 13.2 °F 12.3 °F 1018.8 in NW 4.8 mph 9.7 mph 94 % 0.0 in
01:42 13.2 °F 12.3 °F 1018.8 in WNW 1.6 mph 9.7 mph 94 % 0.0 in
01:47 13.2 °F 12.3 °F 1018.8 in WNW 8.0 mph 9.7 mph 94 % 0.0 in
01:52 13.2 °F 12.3 °F 1018.8 in NW 4.8 mph 12.9 mph 94 % 0.0 in
02:02 13.2 °F 12.3 °F 1018.8 in North 1.6 mph 12.9 mph 94 % 0.0 in
02:07 13.2 °F 12.3 °F 1018.8 in Calm   8.0 mph 94 % 0.0 in
02:12 13.2 °F 12.3 °F 1018.8 in NW 3.2 mph 8.0 mph 94 % 0.0 in
02:22 13.2 °F 12.3 °F 1018.8 in NW 1.6 mph 8.0 mph 94 % 0.0 in
02:27 13.2 °F 12.3 °F 1018.8 in Calm   8.0 mph 94 % 0.0 in
02:32 13.2 °F 12.3 °F 1019.2 in Calm   8.0 mph 94 % 0.0 in
02:37 13.1 °F 12.2 °F 1019.2 in NNW 3.2 mph 9.7 mph 94 % 0.0 in
02:42 13.1 °F 12.2 °F 1019.2 in WNW 4.8 mph 9.7 mph 94 % 0.0 in
02:47 13.1 °F 12.2 °F 1019.2 in Calm   9.7 mph 94 % 0.0 in
02:52 13.1 °F 12.2 °F 1019.2 in WNW 3.2 mph 6.4 mph 94 % 0.0 in
02:57 13.1 °F 12.2 °F 1019.2 in WNW 1.6 mph 8.0 mph 94 % 0.0 in
03:02 13.0 °F 12.1 °F 1019.5 in West 4.8 mph 8.0 mph 94 % 0.0 in
03:07 12.9 °F 12.0 °F 1019.5 in West 1.6 mph 9.7 mph 94 % 0.0 in
03:12 12.9 °F 12.0 °F 1019.2 in WNW 1.6 mph 9.7 mph 94 % 0.0 in
03:17 12.9 °F 12.0 °F 1019.5 in Calm   9.7 mph 94 % 0.0 in
03:22 12.9 °F 12.1 °F 1019.5 in WNW 1.6 mph 3.2 mph 95 % 0.0 in
03:27 12.9 °F 12.1 °F 1019.5 in WNW 1.6 mph 4.8 mph 95 % 0.0 in
03:32 12.8 °F 12.0 °F 1019.5 in Calm   4.8 mph 95 % 0.0 in
03:42 12.7 °F 11.9 °F 1019.5 in NW 1.6 mph 6.4 mph 95 % 0.0 in
03:47 12.5 °F 11.6 °F 1019.5 in WNW 4.8 mph 6.4 mph 94 % 0.0 in
03:52 12.4 °F 11.5 °F 1019.5 in WNW 1.6 mph 6.4 mph 94 % 0.0 in
03:57 12.3 °F 11.4 °F 1019.5 in NW 3.2 mph 6.4 mph 94 % 0.0 in
04:02 12.2 °F 11.3 °F 1019.5 in WNW 3.2 mph 6.4 mph 94 % 0.0 in
04:07 12.2 °F 11.3 °F 1019.5 in West 1.6 mph 6.4 mph 94 % 0.0 in
04:12 12.1 °F 11.2 °F 1019.9 in WNW 1.6 mph 6.4 mph 94 % 0.0 in
04:17 12.1 °F 11.2 °F 1019.5 in NW 3.2 mph 6.4 mph 94 % 0.0 in
04:22 12.0 °F 11.1 °F 1019.5 in West 1.6 mph 4.8 mph 94 % 0.0 in
04:32 11.8 °F 10.9 °F 1019.5 in NW 1.6 mph 4.8 mph 94 % 0.0 in
04:37 11.6 °F 10.7 °F 1019.9 in Calm   4.8 mph 94 % 0.0 in
04:42 11.5 °F 10.6 °F 1019.9 in NNW 1.6 mph 4.8 mph 94 % 0.0 in
04:47 11.4 °F 10.5 °F 1019.9 in NNW 1.6 mph 4.8 mph 94 % 0.0 in
04:52 11.3 °F 10.4 °F 1019.9 in NNW 3.2 mph 3.2 mph 94 % 0.0 in
04:57 11.2 °F 10.3 °F 1019.9 in North 1.6 mph 4.8 mph 94 % 0.0 in
05:02 11.1 °F 10.2 °F 1019.9 in NNW 1.6 mph 4.8 mph 94 % 0.0 in
05:12 11.1 °F 10.2 °F 1019.9 in Calm   3.2 mph 94 % 0.0 in
05:17 11.1 °F 10.2 °F 1019.9 in Calm   3.2 mph 94 % 0.0 in
05:22 11.1 °F 10.2 °F 1019.9 in Calm     94 % 0.0 in
05:32 10.7 °F 9.8 °F 1019.9 in Calm     94 % 0.0 in
05:42 10.3 °F 9.4 °F 1019.9 in Calm     94 % 0.0 in
05:52 10.3 °F 9.5 °F 1020.2 in Calm     95 % 0.0 in
06:02 9.9 °F 9.1 °F 1020.2 in Calm     95 % 0.0 in
06:17 9.7 °F 8.9 °F 1020.5 in Calm     95 % 0.0 in
06:22 9.7 °F 9.1 °F 1020.5 in Calm     96 % 0.0 in
06:27 9.7 °F 9.1 °F 1020.5 in Calm     96 % 0.0 in
06:32 9.7 °F 9.1 °F 1020.5 in Calm     96 % 0.0 in
06:42 9.8 °F 9.2 °F 1020.9 in Calm     96 % 0.0 in
06:47 9.8 °F 9.2 °F 1020.9 in Calm     96 % 0.0 in
06:57 10.0 °F 9.2 °F 1020.9 in Calm     95 % 0.0 in
07:02 10.1 °F 9.3 °F 1020.9 in Calm     95 % 0.0 in
07:12 10.4 °F 9.6 °F 1020.9 in Calm     95 % 0.0 in
07:17 10.8 °F 10.0 °F 1020.9 in Calm     95 % 0.0 in
07:22 11.6 °F 11.0 °F 1021.2 in Calm     96 % 0.0 in
07:32 12.1 °F 11.0 °F 1021.2 in Calm     93 % 0.0 in
07:42 12.7 °F 11.4 °F 1021.2 in Calm     92 % 0.0 in
07:52 13.4 °F 11.8 °F 1021.6 in Calm     90 % 0.0 in
07:57 13.1 °F 11.3 °F 1021.6 in Calm     89 % 0.0 in
08:02 13.0 °F 11.2 °F 1021.6 in Calm   1.6 mph 89 % 0.0 in
08:12 13.3 °F 11.5 °F 1021.6 in Calm   3.2 mph 89 % 0.0 in
08:17 13.3 °F 11.5 °F 1021.6 in Calm   3.2 mph 89 % 0.0 in
08:22 13.4 °F 11.5 °F 1021.9 in Calm   3.2 mph 88 % 0.0 in
08:27 13.5 °F 11.7 °F 1021.9 in Calm   3.2 mph 89 % 0.0 in
08:32 13.6 °F 11.8 °F 1021.9 in Calm   1.6 mph 89 % 0.0 in
08:37 13.6 °F 11.8 °F 1021.9 in Calm     89 % 0.0 in
08:42 13.6 °F 11.6 °F 1021.6 in Calm     88 % 0.0 in
08:47 13.7 °F 11.7 °F 1021.6 in Calm     88 % 0.0 in
08:52 13.8 °F 11.8 °F 1021.6 in Calm     88 % 0.0 in
08:57 13.9 °F 11.6 °F 1021.6 in East 1.6 mph   86 % 0.0 in
09:02 13.8 °F 11.5 °F 1021.6 in ENE 3.2 mph 3.2 mph 86 % 0.0 in
09:12 13.9 °F 11.1 °F 1021.2 in ENE 3.2 mph 3.2 mph 83 % 0.0 in
09:17 14.2 °F 11.7 °F 1021.2 in Calm   4.8 mph 85 % 0.0 in
09:22 14.3 °F 11.1 °F 1021.2 in North 3.2 mph 4.8 mph 81 % 0.0 in
09:32 14.6 °F 11.4 °F 1021.6 in Calm   6.4 mph 81 % 0.0 in
09:37 15.5 °F 12.1 °F 1021.6 in Calm   6.4 mph 80 % 0.0 in
09:42 15.9 °F 11.9 °F 1021.6 in Calm   6.4 mph 77 % 0.0 in
09:47 15.8 °F 11.4 °F 1021.2 in Calm   6.4 mph 75 % 0.0 in
09:52 15.6 °F 11.0 °F 1021.2 in Calm   6.4 mph 74 % 0.0 in
09:57 15.6 °F 10.6 °F 1021.2 in North 3.2 mph 6.4 mph 72 % 0.0 in
10:02 15.6 °F 11.0 °F 1021.2 in NNE 3.2 mph 9.7 mph 74 % 0.0 in
10:07 15.9 °F 10.4 °F 1021.2 in NNE 8.0 mph 9.7 mph 70 % 0.0 in
10:12 15.8 °F 9.7 °F 1021.2 in WNW 3.2 mph 11.3 mph 67 % 0.0 in
10:17 15.8 °F 10.3 °F 1021.6 in North 1.6 mph 11.3 mph 70 % 0.0 in
10:27 16.0 °F 9.4 °F 1021.6 in NNE 3.2 mph 12.9 mph 65 % 0.0 in
10:32 15.9 °F 9.6 °F 1021.6 in NE 4.8 mph 12.9 mph 66 % 0.0 in
10:37 16.0 °F 10.1 °F 1021.6 in Calm   11.3 mph 68 % 0.0 in
10:42 16.2 °F 10.1 °F 1021.6 in West 1.6 mph 11.3 mph 67 % 0.0 in
10:47 16.3 °F 10.2 °F 1021.6 in West 9.7 mph 9.7 mph 67 % 0.0 in
10:52 16.4 °F 10.3 °F 1021.6 in NE 6.4 mph 9.7 mph 67 % 0.0 in
10:57 16.3 °F 9.2 °F 1021.6 in NNW 4.8 mph 9.7 mph 63 % 0.0 in
11:02 16.3 °F 9.5 °F 1021.2 in West 4.8 mph 11.3 mph 64 % 0.0 in
11:07 16.5 °F 9.4 °F 1021.2 in NNE 3.2 mph 11.3 mph 63 % 0.0 in
11:12 16.5 °F 9.4 °F 1021.2 in NNW 3.2 mph 11.3 mph 63 % 0.0 in
11:17 16.6 °F 10.2 °F 1021.2 in North 6.4 mph 11.3 mph 66 % 0.0 in
11:22 16.7 °F 10.3 °F 1021.2 in NNW 4.8 mph 14.5 mph 66 % 0.0 in
11:32 16.8 °F 10.0 °F 1021.2 in West 1.6 mph 11.3 mph 64 % 0.0 in
11:37 17.2 °F 10.3 °F 1021.2 in NE 3.2 mph 8.0 mph 64 % 0.0 in
11:42 17.3 °F 10.4 °F 1021.2 in WNW 6.4 mph 9.7 mph 64 % 0.0 in
11:47 17.4 °F 9.6 °F 1021.2 in SW 3.2 mph 9.7 mph 60 % 0.0 in
11:52 17.5 °F 10.4 °F 1021.2 in WNW 3.2 mph 9.7 mph 63 % 0.0 in
11:57 18.1 °F 11.2 °F 1021.2 in NNE 6.4 mph 8.0 mph 64 % 0.0 in
12:02 17.7 °F 10.3 °F 1021.2 in NNW 3.2 mph 11.3 mph 62 % 0.0 in
12:07 17.3 °F 9.9 °F 1021.2 in North 1.6 mph 11.3 mph 62 % 0.0 in
12:12 17.2 °F 9.9 °F 1021.2 in Calm   11.3 mph 62 % 0.0 in
12:17 17.1 °F 10.0 °F 1021.2 in NNW 3.2 mph 11.3 mph 63 % 0.0 in
12:22 17.1 °F 10.0 °F 1021.2 in WNW 3.2 mph 11.3 mph 63 % 0.0 in
12:32 17.7 °F 10.8 °F 1021.2 in NNW 11.3 mph 11.3 mph 64 % 0.0 in
12:37 17.6 °F 10.0 °F 1021.2 in West 1.6 mph 11.3 mph 61 % 0.0 in
12:42 17.3 °F 9.9 °F 1021.2 in NW 4.8 mph 11.3 mph 62 % 0.0 in
12:47 17.8 °F 11.4 °F 1021.2 in NNE 9.7 mph 11.3 mph 66 % 0.0 in
12:52 17.7 °F 10.3 °F 1021.2 in West 3.2 mph 11.3 mph 62 % 0.0 in
12:57 17.7 °F 10.3 °F 1020.9 in West 3.2 mph 9.7 mph 62 % 0.0 in
13:02 17.7 °F 10.1 °F 1020.9 in North 3.2 mph 9.7 mph 61 % 0.0 in
13:07 17.6 °F 10.0 °F 1020.9 in NW 6.4 mph 11.3 mph 61 % 0.0 in
13:12 17.5 °F 9.9 °F 1020.9 in West 4.8 mph 12.9 mph 61 % 0.0 in
13:17 17.7 °F 10.8 °F 1020.9 in West 6.4 mph 12.9 mph 64 % 0.0 in
13:22 17.9 °F 10.3 °F 1020.9 in WNW 1.6 mph 12.9 mph 61 % 0.0 in
13:27 17.9 °F 10.3 °F 1020.9 in WNW 1.6 mph 12.9 mph 61 % 0.0 in
13:32 18.2 °F 10.3 °F 1020.9 in NNW 1.6 mph 9.7 mph 60 % 0.0 in
13:37 18.3 °F 10.4 °F 1020.9 in Calm   9.7 mph 60 % 0.0 in
13:42 18.4 °F 10.2 °F 1020.9 in North 3.2 mph 9.7 mph 59 % 0.0 in
13:47 18.4 °F 10.7 °F 1020.9 in NNW 3.2 mph 9.7 mph 61 % 0.0 in
13:52 18.4 °F 11.0 °F 1020.5 in WNW 4.8 mph 8.0 mph 62 % 0.0 in
13:57 18.6 °F 10.2 °F 1020.5 in NW 3.2 mph 8.0 mph 58 % 0.0 in
14:02 18.6 °F 10.9 °F 1020.5 in NW 6.4 mph 8.0 mph 61 % 0.0 in
14:07 18.4 °F 9.7 °F 1020.5 in NNE 1.6 mph 9.7 mph 57 % 0.0 in
14:12 18.4 °F 10.0 °F 1020.5 in Calm   9.7 mph 58 % 0.0 in
14:17 18.4 °F 9.2 °F 1020.5 in NW 8.0 mph 11.3 mph 55 % 0.0 in
14:22 18.4 °F 9.5 °F 1020.5 in Calm   11.3 mph 56 % 0.0 in
14:27 18.8 °F 10.6 °F 1020.2 in NW 3.2 mph 11.3 mph 59 % 0.0 in
14:37 18.7 °F 10.0 °F 1020.2 in ENE 3.2 mph 8.0 mph 57 % 0.0 in
14:42 18.6 °F 10.4 °F 1020.2 in West 1.6 mph 6.4 mph 59 % 0.0 in
14:47 18.4 °F 10.2 °F 1020.2 in WNW 3.2 mph 8.0 mph 59 % 0.0 in
14:52 18.5 °F 10.1 °F 1020.2 in SW 1.6 mph 8.0 mph 58 % 0.0 in
14:57 18.9 °F 9.9 °F 1019.9 in Calm   8.0 mph 56 % 0.0 in
15:02 19.2 °F 9.7 °F 1020.2 in WNW 8.0 mph 8.0 mph 54 % 0.0 in
15:07 18.9 °F 9.7 °F 1020.2 in West 6.4 mph 9.7 mph 55 % 0.0 in
15:12 18.9 °F 9.7 °F 1020.2 in West 4.8 mph 9.7 mph 55 % 0.0 in
15:17 18.9 °F 9.9 °F 1020.2 in SW 4.8 mph 11.3 mph 56 % 0.0 in
15:22 19.0 °F 9.8 °F 1020.2 in WNW 1.6 mph 11.3 mph 55 % 0.0 in
15:27 19.0 °F 9.8 °F 1020.2 in NNW 1.6 mph 11.3 mph 55 % 0.0 in
15:32 19.0 °F 9.5 °F 1019.9 in West 3.2 mph 8.0 mph 54 % 0.0 in
15:37 19.0 °F 10.0 °F 1019.9 in West 4.8 mph 8.0 mph 56 % 0.0 in
15:42 18.8 °F 10.1 °F 1019.9 in West 3.2 mph 8.0 mph 57 % 0.0 in
15:47 18.7 °F 9.7 °F 1019.9 in West 4.8 mph 8.0 mph 56 % 0.0 in
15:52 18.6 °F 9.6 °F 1019.9 in West 3.2 mph 6.4 mph 56 % 0.0 in
15:57 18.8 °F 9.3 °F 1019.9 in WSW 4.8 mph 6.4 mph 54 % 0.0 in
16:02 18.9 °F 9.4 °F 1019.9 in Calm   6.4 mph 54 % 0.0 in
16:07 19.5 °F 9.7 °F 1019.9 in West 3.2 mph 6.4 mph 53 % 0.0 in
16:12 19.5 °F 9.4 °F 1019.9 in Calm   9.7 mph 52 % 0.0 in
16:17 19.4 °F 9.3 °F 1019.9 in Calm   9.7 mph 52 % 0.0 in
16:22 19.7 °F 9.6 °F 1019.9 in WNW 6.4 mph 9.7 mph 52 % 0.0 in
16:27 19.7 °F 9.6 °F 1019.5 in Calm   8.0 mph 52 % 0.0 in
16:32 19.8 °F 9.1 °F 1019.5 in West 6.4 mph 6.4 mph 50 % 0.0 in
16:37 19.4 °F 8.7 °F 1019.5 in WSW 3.2 mph 11.3 mph 50 % 0.0 in
16:42 19.5 °F 8.8 °F 1019.5 in Calm   11.3 mph 50 % 0.0 in
16:47 19.6 °F 8.9 °F 1019.5 in NE 1.6 mph 9.7 mph 50 % 0.0 in
16:52 19.3 °F 10.0 °F 1019.2 in Calm   8.0 mph 55 % 0.0 in
16:57 19.5 °F 11.0 °F 1019.2 in Calm   8.0 mph 58 % 0.0 in
17:02 19.6 °F 10.3 °F 1019.2 in Calm   6.4 mph 55 % 0.0 in
17:07 19.8 °F 9.7 °F 1019.2 in Calm   4.8 mph 52 % 0.0 in
17:12 19.9 °F 9.8 °F 1019.2 in WNW 1.6 mph 6.4 mph 52 % 0.0 in
17:17 19.8 °F 9.7 °F 1019.2 in NNW 1.6 mph 6.4 mph 52 % 0.0 in
17:22 19.4 °F 9.6 °F 1019.2 in Calm   6.4 mph 53 % 0.0 in
17:27 19.7 °F 9.9 °F 1019.2 in WNW 1.6 mph 4.8 mph 53 % 0.0 in
17:32 19.8 °F 10.2 °F 1018.8 in Calm   4.8 mph 54 % 0.0 in
17:37 20.1 °F 11.0 °F 1018.8 in East 3.2 mph 4.8 mph 56 % 0.0 in
17:42 19.8 °F 10.5 °F 1018.8 in NNE 6.4 mph 6.4 mph 55 % 0.0 in
17:47 19.7 °F 10.4 °F 1018.8 in NNE 4.8 mph 6.4 mph 55 % 0.0 in
17:52 19.3 °F 10.0 °F 1018.8 in ENE 1.6 mph 8.0 mph 55 % 0.0 in
17:57 19.2 °F 9.9 °F 1018.8 in Calm   8.0 mph 55 % 0.0 in
18:02 19.3 °F 10.6 °F 1018.8 in East 1.6 mph 8.0 mph 57 % 0.0 in
18:07 19.7 °F 10.7 °F 1018.8 in NE 3.2 mph 4.8 mph 56 % 0.0 in
18:12 19.4 °F 9.9 °F 1018.8 in ENE 8.0 mph 9.7 mph 54 % 0.0 in
18:17 19.6 °F 10.6 °F 1018.8 in NE 3.2 mph 9.7 mph 56 % 0.0 in
18:22 19.4 °F 9.9 °F 1018.8 in NNE 3.2 mph 9.7 mph 54 % 0.0 in
18:32 19.7 °F 9.9 °F 1018.8 in WNW 4.8 mph 8.0 mph 53 % 0.0 in
18:42 19.8 °F 10.2 °F 1018.8 in WNW 6.4 mph 11.3 mph 54 % 0.0 in
18:47 19.6 °F 9.8 °F 1018.8 in WNW 4.8 mph 12.9 mph 53 % 0.0 in
18:52 19.7 °F 9.9 °F 1018.8 in WNW 6.4 mph 12.9 mph 53 % 0.0 in
18:57 19.9 °F 9.8 °F 1018.5 in Calm   11.3 mph 52 % 0.0 in
19:02 19.9 °F 9.5 °F 1018.5 in WSW 4.8 mph 11.3 mph 51 % 0.0 in
19:12 20.3 °F 10.1 °F 1018.5 in NW 1.6 mph 9.7 mph 52 % 0.0 in
19:17 20.4 °F 9.6 °F 1018.5 in North 1.6 mph 9.7 mph 50 % 0.0 in
19:22 20.2 °F 9.4 °F 1018.5 in NNW 1.6 mph 9.7 mph 50 % 0.0 in
19:27 20.3 °F 10.1 °F 1018.5 in North 1.6 mph 8.0 mph 52 % 0.0 in
19:32 20.2 °F 9.1 °F 1018.5 in Calm   8.0 mph 49 % 0.0 in
19:37 20.1 °F 9.4 °F 1018.5 in WNW 1.6 mph 4.8 mph 50 % 0.0 in
19:42 20.0 °F 10.4 °F 1018.5 in Calm   4.8 mph 54 % 0.0 in
19:47 19.8 °F 9.9 °F 1018.5 in North 1.6 mph 6.4 mph 53 % 0.0 in
19:52 19.7 °F 10.4 °F 1018.5 in WNW 3.2 mph 6.4 mph 55 % 0.0 in
19:57 19.6 °F 10.6 °F 1018.5 in Calm   6.4 mph 56 % 0.0 in
20:02 19.5 °F 10.5 °F 1018.2 in Calm   4.8 mph 56 % 0.0 in
20:07 19.4 °F 9.9 °F 1018.2 in Calm   4.8 mph 54 % 0.0 in
20:12 19.4 °F 10.4 °F 1018.2 in Calm   4.8 mph 56 % 0.0 in
20:17 19.2 °F 10.5 °F 1018.2 in NW 1.6 mph 3.2 mph 57 % 0.0 in
20:22 19.0 °F 10.8 °F 1018.2 in WNW 1.6 mph 3.2 mph 59 % 0.0 in
20:27 19.0 °F 10.8 °F 1018.2 in Calm   3.2 mph 59 % 0.0 in
20:32 19.0 °F 11.3 °F 1018.2 in NE 1.6 mph 3.2 mph 61 % 0.0 in
20:42 18.4 °F 10.5 °F 1018.2 in Calm   1.6 mph 60 % 0.0 in
20:47 18.5 °F 10.8 °F 1018.2 in Calm   1.6 mph 61 % 0.0 in
20:52 18.6 °F 10.9 °F 1018.2 in Calm     61 % 0.0 in
21:02 18.7 °F 11.0 °F 1018.2 in Calm     61 % 0.0 in
21:07 19.1 °F 12.4 °F 1018.2 in Calm     65 % 0.0 in
21:12 18.9 °F 11.2 °F 1018.2 in Calm     61 % 0.0 in
21:17 18.3 °F 10.9 °F 1018.2 in Calm     62 % 0.0 in
21:22 17.8 °F 10.7 °F 1018.2 in Calm     63 % 0.0 in
21:27 17.5 °F 11.3 °F 1018.2 in Calm     67 % 0.0 in
21:37 16.4 °F 11.1 °F 1018.2 in Calm     71 % 0.0 in
21:42 16.2 °F 11.1 °F 1017.8 in Calm     72 % 0.0 in
21:47 15.9 °F 10.9 °F 1017.8 in Calm     72 % 0.0 in
21:52 15.7 °F 10.9 °F 1018.2 in Calm     73 % 0.0 in
21:57 15.5 °F 10.9 °F 1018.2 in Calm     74 % 0.0 in
22:02 15.3 °F 10.9 °F 1018.2 in Calm     75 % 0.0 in
22:12 14.9 °F 10.7 °F 1018.5 in Calm     76 % 0.0 in
22:17 14.8 °F 10.8 °F 1018.5 in Calm     77 % 0.0 in
22:22 14.7 °F 10.9 °F 1018.5 in Calm     78 % 0.0 in
22:27 14.6 °F 11.0 °F 1018.5 in Calm     79 % 0.0 in
22:32 14.5 °F 10.9 °F 1018.5 in Calm     79 % 0.0 in
22:37 14.4 °F 10.8 °F 1018.5 in Calm     79 % 0.0 in
22:42 14.2 °F 11.0 °F 1018.8 in Calm     81 % 0.0 in
22:47 14.0 °F 11.0 °F 1018.8 in Calm     82 % 0.0 in
22:52 13.7 °F 10.9 °F 1018.8 in Calm     83 % 0.0 in
22:57 13.6 °F 10.9 °F 1018.8 in Calm     84 % 0.0 in
23:02 13.6 °F 10.9 °F 1018.8 in Calm     84 % 0.0 in
23:07 13.5 °F 10.7 °F 1018.8 in Calm     83 % 0.0 in
23:12 13.4 °F 10.6 °F 1018.8 in Calm     83 % 0.0 in
23:17 13.3 °F 10.7 °F 1018.8 in Calm     84 % 0.0 in
23:22 13.1 °F 10.6 °F 1018.8 in Calm     85 % 0.0 in
23:27 12.8 °F 10.5 °F 1018.8 in Calm     86 % 0.0 in
23:32 12.7 °F 10.4 °F 1018.8 in Calm     86 % 0.0 in
23:37 12.6 °F 10.5 °F 1018.8 in Calm     87 % 0.0 in
23:42 12.5 °F 10.4 °F 1018.8 in Calm     87 % 0.0 in
23:47 12.3 °F 10.2 °F 1018.8 in Calm     87 % 0.0 in
23:57 12.1 °F 10.2 °F 1018.5 in Calm     88 % 0.0 in
Meteo18
Compliments of Weather Underground - 4 mb

Script developed by  Jim McMurry - jmcmurry@mwt.net Adapted for the template by  Wim van der Kuil - Leuven-Template.eu

You find our weather info also at:

European Weather Network

Weather Underground

Equipment we use:

Weather-station
Davis Vue

Weather-program
Meteobridge

Weather-server
Raspberry PI 2 B+

Provider
1 and 1

Davis Vue

Meteobridge

Raspberry PI 2 B+

1 and 1